createdAt,value
2018-03-04T00:00:48.424Z,4.1
2018-03-04T00:01:37.771Z,4.1
2018-03-04T00:02:28.042Z,4.1
2018-03-04T00:03:18.098Z,4.1
2018-03-04T00:04:08.085Z,4.1
2018-03-04T00:04:58.405Z,4.1
2018-03-04T00:05:49.033Z,4.1
2018-03-04T00:06:38.892Z,4.1
2018-03-04T00:07:28.573Z,4.1
2018-03-04T00:08:18.245Z,4.1
2018-03-04T00:09:08.974Z,4.1
2018-03-04T00:09:58.763Z,4.1
2018-03-04T00:10:49.092Z,4.1
2018-03-04T00:11:38.440Z,4.1
2018-03-04T00:12:28.349Z,4.1
2018-03-04T00:13:18.994Z,4.1
2018-03-04T00:14:09.311Z,4.1
2018-03-04T00:14:58.722Z,4.1
2018-03-04T00:15:48.965Z,4.1
2018-03-04T00:16:39.510Z,4.1
2018-03-04T00:17:29.004Z,4.1
2018-03-04T00:18:19.664Z,4.1
2018-03-04T00:19:09.470Z,4.1
2018-03-04T00:19:59.442Z,4.1
2018-03-04T00:20:49.417Z,4.1
2018-03-04T00:21:39.112Z,4.1
2018-03-04T00:22:29.331Z,4.1
2018-03-04T00:23:18.920Z,4.1
2018-03-04T00:24:09.535Z,4.1
2018-03-04T00:24:59.235Z,4.1
2018-03-04T00:25:49.857Z,4.1
2018-03-04T00:26:39.326Z,4.1
2018-03-04T00:27:29.769Z,4.1
2018-03-04T00:28:19.786Z,4.1
2018-03-04T00:29:10.677Z,4.1
2018-03-04T00:29:59.866Z,4.1
2018-03-04T00:30:49.916Z,4.1
2018-03-04T00:31:40.296Z,4.1
2018-03-04T00:32:29.835Z,4.1
2018-03-04T00:33:19.822Z,4.1
2018-03-04T00:34:10.457Z,4.1
2018-03-04T00:35:00.574Z,4.1
2018-03-04T00:35:50.629Z,4.1
2018-03-04T00:36:40.336Z,4.1
2018-03-04T00:37:30.561Z,4.1
2018-03-04T00:38:20.464Z,4.1
2018-03-04T00:39:10.124Z,4.1
2018-03-04T00:40:00.166Z,4.1
2018-03-04T00:40:51.206Z,4
2018-03-04T00:41:39.826Z,4
2018-03-04T00:42:30.838Z,4
2018-03-04T00:43:21.086Z,4
2018-03-04T00:44:10.671Z,4
2018-03-04T00:45:00.640Z,4
2018-03-04T00:45:50.688Z,4
2018-03-04T00:46:41.045Z,4
2018-03-04T00:47:31.745Z,4
2018-03-04T00:48:20.985Z,3.9
2018-03-04T00:49:10.980Z,4
2018-03-04T00:50:00.953Z,3.9
2018-03-04T00:50:51.888Z,3.9
2018-03-04T00:51:41.771Z,3.9
2018-03-04T00:52:32.020Z,3.9
2018-03-04T00:53:22.511Z,3.9
2018-03-04T00:54:11.376Z,3.9
2018-03-04T00:55:01.503Z,3.9
2018-03-04T00:55:52.225Z,3.9
2018-03-04T00:56:42.307Z,3.9
2018-03-04T00:57:32.086Z,3.9
2018-03-04T00:58:22.422Z,3.9
2018-03-04T00:59:12.497Z,3.9
2018-03-04T01:00:02.239Z,3.8
2018-03-04T01:00:51.929Z,3.9
2018-03-04T01:01:41.912Z,3.9
2018-03-04T01:02:32.427Z,3.9
2018-03-04T01:03:22.794Z,3.8
2018-03-04T01:04:12.563Z,3.8
2018-03-04T01:05:02.621Z,3.8
2018-03-04T01:05:52.259Z,3.8
2018-03-04T01:06:42.036Z,3.8
2018-03-04T01:07:32.459Z,3.8
2018-03-04T01:08:22.657Z,3.8
2018-03-04T01:09:12.877Z,3.8
2018-03-04T01:10:02.471Z,3.8
2018-03-04T01:10:52.882Z,3.8
2018-03-04T01:11:43.177Z,3.8
2018-03-04T01:12:33.181Z,3.8
2018-03-04T01:13:23.000Z,3.8
2018-03-04T01:14:12.873Z,3.8
2018-03-04T01:15:03.311Z,3.8
2018-03-04T01:15:53.144Z,3.8
2018-03-04T01:16:43.305Z,3.8
2018-03-04T01:17:32.991Z,3.8
2018-03-04T01:18:22.956Z,3.8
2018-03-04T01:19:13.616Z,3.8
2018-03-04T01:20:03.399Z,3.8
2018-03-04T01:20:53.736Z,3.8
2018-03-04T01:21:43.591Z,3.7
2018-03-04T01:22:34.141Z,3.7
2018-03-04T01:23:23.421Z,3.7
2018-03-04T01:24:13.406Z,3.6
2018-03-04T01:25:03.450Z,3.7
2018-03-04T01:25:53.854Z,3.7
2018-03-04T01:26:44.448Z,3.7
2018-03-04T01:27:33.415Z,3.7
2018-03-04T01:28:24.246Z,3.7
2018-03-04T01:29:13.723Z,3.7
2018-03-04T01:30:04.912Z,3.6
2018-03-04T01:30:53.937Z,3.7
2018-03-04T01:31:44.181Z,3.6
2018-03-04T01:32:34.625Z,3.6
2018-03-04T01:33:24.675Z,3.6
2018-03-04T01:34:14.678Z,3.6
2018-03-04T01:35:04.528Z,3.6
2018-03-04T01:35:54.182Z,3.6
2018-03-04T01:36:45.092Z,3.6
2018-03-04T01:37:35.020Z,3.6
2018-03-04T01:38:24.655Z,3.6
2018-03-04T01:39:14.515Z,3.6
2018-03-04T01:40:04.850Z,3.6
2018-03-04T01:40:55.200Z,3.6
2018-03-04T01:41:45.482Z,3.6
2018-03-04T01:42:34.087Z,3.6
2018-03-04T01:43:25.102Z,3.6
2018-03-04T01:44:15.437Z,3.6
2018-03-04T01:45:05.106Z,3.6
2018-03-04T01:45:55.479Z,3.6
2018-03-04T01:46:45.374Z,3.6
2018-03-04T01:47:36.164Z,3.6
2018-03-04T01:48:25.642Z,3.6
2018-03-04T01:49:15.131Z,3.6
2018-03-04T01:50:05.471Z,3.6
2018-03-04T01:50:55.414Z,3.6
2018-03-04T01:51:45.608Z,3.6
2018-03-04T01:52:35.941Z,3.5
2018-03-04T01:53:26.075Z,3.5
2018-03-04T01:54:15.476Z,3.6
2018-03-04T01:55:06.386Z,3.6
2018-03-04T01:55:55.411Z,3.6
2018-03-04T01:56:46.245Z,3.6
2018-03-04T01:57:35.736Z,3.6
2018-03-04T01:58:26.369Z,3.6
2018-03-04T01:59:16.133Z,3.6
2018-03-04T02:00:05.919Z,3.6
2018-03-04T02:00:56.235Z,3.6
2018-03-04T02:01:46.376Z,3.6
2018-03-04T02:02:36.648Z,3.6
2018-03-04T02:03:26.404Z,3.6
2018-03-04T02:04:16.851Z,3.6
2018-03-04T02:05:06.534Z,3.6
2018-03-04T02:05:57.161Z,3.6
2018-03-04T02:06:45.888Z,3.6
2018-03-04T02:07:36.910Z,3.6
2018-03-04T02:08:26.855Z,3.6
2018-03-04T02:09:16.400Z,3.6
2018-03-04T02:10:06.900Z,3.6
2018-03-04T02:10:57.203Z,3.6
2018-03-04T02:11:46.808Z,3.6
2018-03-04T02:12:36.664Z,3.6
2018-03-04T02:13:27.221Z,3.6
2018-03-04T02:14:17.260Z,3.6
2018-03-04T02:15:07.617Z,3.6
2018-03-04T02:15:57.676Z,3.6
2018-03-04T02:16:47.352Z,3.6
2018-03-04T02:17:37.996Z,3.6
2018-03-04T02:18:27.496Z,3.6
2018-03-04T02:19:17.797Z,3.6
2018-03-04T02:20:07.309Z,3.6
2018-03-04T02:20:57.737Z,3.6
2018-03-04T02:21:48.312Z,3.6
2018-03-04T02:22:38.053Z,3.6
2018-03-04T02:23:27.342Z,3.6
2018-03-04T02:24:17.998Z,3.6
2018-03-04T02:25:07.570Z,3.6
2018-03-04T02:25:58.075Z,3.6
2018-03-04T02:26:48.160Z,3.6
2018-03-04T02:27:37.727Z,3.5
2018-03-04T02:28:28.639Z,3.6
2018-03-04T02:29:17.452Z,3.6
2018-03-04T02:30:09.111Z,3.6
2018-03-04T02:30:57.972Z,3.6
2018-03-04T02:31:49.069Z,3.6
2018-03-04T02:32:38.182Z,3.5
2018-03-04T02:33:28.221Z,3.6
2018-03-04T02:34:18.605Z,3.6
2018-03-04T02:35:09.013Z,3.5
2018-03-04T02:35:58.725Z,3.6
2018-03-04T02:36:48.774Z,3.5
2018-03-04T02:37:39.228Z,3.5
2018-03-04T02:38:28.580Z,3.5
2018-03-04T02:39:18.748Z,3.5
2018-03-04T02:40:08.707Z,3.5
2018-03-04T02:40:58.957Z,3.5
2018-03-04T02:41:49.704Z,3.5
2018-03-04T02:42:38.959Z,3.5
2018-03-04T02:43:29.779Z,3.4
2018-03-04T02:44:20.154Z,3.4
2018-03-04T02:45:08.489Z,3.4
2018-03-04T02:45:59.429Z,3.4
2018-03-04T02:46:50.076Z,3.4
2018-03-04T02:47:39.594Z,3.4
2018-03-04T02:48:29.877Z,3.4
2018-03-04T02:49:20.243Z,3.4
2018-03-04T02:50:09.154Z,3.4
2018-03-04T02:51:00.056Z,3.4
2018-03-04T02:51:50.699Z,3.4
2018-03-04T02:52:39.404Z,3.4
2018-03-04T02:53:30.237Z,3.4
2018-03-04T02:54:20.089Z,3.4
2018-03-04T02:55:09.470Z,3.4
2018-03-04T02:56:00.716Z,3.4
2018-03-04T02:56:50.448Z,3.4
2018-03-04T02:57:39.823Z,3.4
2018-03-04T02:58:30.456Z,3.4
2018-03-04T02:59:21.239Z,3.4
2018-03-04T03:00:10.779Z,3.4
2018-03-04T03:01:01.051Z,3.4
2018-03-04T03:01:50.229Z,3.4
2018-03-04T03:02:40.167Z,3.3
2018-03-04T03:03:30.832Z,3.3
2018-03-04T03:04:21.298Z,3.3
2018-03-04T03:05:10.348Z,3.3
2018-03-04T03:06:01.280Z,3.3
2018-03-04T03:06:50.679Z,3.3
2018-03-04T03:07:40.961Z,3.3
2018-03-04T03:08:30.372Z,3.3
2018-03-04T03:09:21.597Z,3.3
2018-03-04T03:10:11.370Z,3.3
2018-03-04T03:11:01.173Z,3.3
2018-03-04T03:11:51.014Z,3.3
2018-03-04T03:12:41.641Z,3.3
2018-03-04T03:13:31.434Z,3.3
2018-03-04T03:14:21.748Z,3.3
2018-03-04T03:15:11.756Z,3.3
2018-03-04T03:16:02.152Z,3.3
2018-03-04T03:16:51.652Z,3.3
2018-03-04T03:17:41.907Z,3.3
2018-03-04T03:18:31.697Z,3.3
2018-03-04T03:19:21.742Z,3.3
2018-03-04T03:20:12.161Z,3.2
2018-03-04T03:21:02.707Z,3.3
2018-03-04T03:21:52.011Z,3.3
2018-03-04T03:22:41.464Z,3.3
2018-03-04T03:23:32.009Z,3.3
2018-03-04T03:24:22.968Z,3.3
2018-03-04T03:25:11.833Z,3.3
2018-03-04T03:26:01.933Z,3.3
2018-03-04T03:26:52.558Z,3.2
2018-03-04T03:27:42.034Z,3.3
2018-03-04T03:28:32.748Z,3.3
2018-03-04T03:29:22.706Z,3.3
2018-03-04T03:30:13.128Z,3.3
2018-03-04T03:31:03.040Z,3.3
2018-03-04T03:31:52.607Z,3.3
2018-03-04T03:32:43.228Z,3.3
2018-03-04T03:33:33.409Z,3.3
2018-03-04T03:34:22.793Z,3.3
2018-03-04T03:35:13.044Z,3.3
2018-03-04T03:36:02.920Z,3.3
2018-03-04T03:36:52.768Z,3.3
2018-03-04T03:37:42.750Z,3.3
2018-03-04T03:38:33.166Z,3.3
2018-03-04T03:39:22.848Z,3.3
2018-03-04T03:40:13.561Z,3.3
2018-03-04T03:41:03.475Z,3.3
2018-03-04T03:41:53.129Z,3.3
2018-03-04T03:42:42.590Z,3.3
2018-03-04T03:43:33.704Z,3.3
2018-03-04T03:44:23.098Z,3.3
2018-03-04T03:45:13.824Z,3.3
2018-03-04T03:46:02.840Z,3.3
2018-03-04T03:46:52.771Z,3.3
2018-03-04T03:47:44.560Z,3.3
2018-03-04T03:48:33.375Z,3.3
2018-03-04T03:49:24.429Z,3.3
2018-03-04T03:50:14.478Z,3.3
2018-03-04T03:51:04.836Z,3.3
2018-03-04T03:51:54.040Z,3.3
2018-03-04T03:52:44.102Z,3.3
2018-03-04T03:53:34.235Z,3.3
2018-03-04T03:54:24.276Z,3.3
2018-03-04T03:55:14.555Z,3.3
2018-03-04T03:56:04.884Z,3.3
2018-03-04T03:56:54.960Z,3.3
2018-03-04T03:57:44.440Z,3.3
2018-03-04T03:58:34.787Z,3.3
2018-03-04T03:59:24.803Z,3.3
2018-03-04T04:00:14.989Z,3.3
2018-03-04T04:01:04.932Z,3.3
2018-03-04T04:01:54.788Z,3.3
2018-03-04T04:02:45.156Z,3.3
2018-03-04T04:03:34.996Z,3.3
2018-03-04T04:04:24.889Z,3.3
2018-03-04T04:05:14.920Z,3.3
2018-03-04T04:06:04.626Z,3.3
2018-03-04T04:06:55.454Z,3.3
2018-03-04T04:07:45.414Z,3.3
2018-03-04T04:08:33.518Z,3.3
2018-03-04T04:09:24.951Z,3.3
2018-03-04T04:10:14.726Z,3.3
2018-03-04T04:11:04.871Z,3.3
2018-03-04T04:11:55.483Z,3.3
2018-03-04T04:12:46.059Z,3.3
2018-03-04T04:13:35.557Z,3.3
2018-03-04T04:14:25.474Z,3.3
2018-03-04T04:15:15.499Z,3.3
2018-03-04T04:16:05.423Z,3.3
2018-03-04T04:16:56.150Z,3.3
2018-03-04T04:17:46.191Z,3.3
2018-03-04T04:18:35.677Z,3.3
2018-03-04T04:19:26.111Z,3.3
2018-03-04T04:20:15.700Z,3.3
2018-03-04T04:21:05.663Z,3.3
2018-03-04T04:21:56.221Z,3.3
2018-03-04T04:22:46.084Z,3.3
2018-03-04T04:23:36.333Z,3.3
2018-03-04T04:24:26.853Z,3.3
2018-03-04T04:25:31.245Z,3.3
2018-03-04T04:26:07.091Z,3.3
2018-03-04T04:26:56.500Z,3.3
2018-03-04T04:27:47.078Z,3.3
2018-03-04T04:28:36.866Z,3.3
2018-03-04T04:29:27.469Z,3.3
2018-03-04T04:30:17.005Z,3.3
2018-03-04T04:31:07.387Z,3.3
2018-03-04T04:31:57.387Z,3.3
2018-03-04T04:32:47.436Z,3.3
2018-03-04T04:33:36.940Z,3.3
2018-03-04T04:34:27.550Z,3.3
2018-03-04T04:35:17.605Z,3.3
2018-03-04T04:36:07.992Z,3.3
2018-03-04T04:36:57.710Z,3.3
2018-03-04T04:37:48.052Z,3.3
2018-03-04T04:38:38.107Z,3.3
2018-03-04T04:39:27.356Z,3.3
2018-03-04T04:40:17.124Z,3.3
2018-03-04T04:41:07.744Z,3.3
2018-03-04T04:41:58.411Z,3.3
2018-03-04T04:42:48.174Z,3.3
2018-03-04T04:43:37.062Z,3.3
2018-03-04T04:44:28.039Z,3.3
2018-03-04T04:45:17.364Z,3.3
2018-03-04T04:46:08.113Z,3.3
2018-03-04T04:46:56.899Z,3.3
2018-03-04T04:47:48.798Z,3.3
2018-03-04T04:48:38.080Z,3.3
2018-03-04T04:49:27.749Z,3.3
2018-03-04T04:50:17.607Z,3.3
2018-03-04T04:51:08.722Z,3.3
2018-03-04T04:51:58.519Z,3.3
2018-03-04T04:52:48.612Z,3.3
2018-03-04T04:53:37.849Z,3.4
2018-03-04T04:54:27.896Z,3.3
2018-03-04T04:55:18.161Z,3.3
2018-03-04T04:56:08.518Z,3.4
2018-03-04T04:56:58.561Z,3.4
2018-03-04T04:57:48.678Z,3.4
2018-03-04T04:58:38.811Z,3.4
2018-03-04T04:59:28.846Z,3.4
2018-03-04T05:00:18.903Z,3.4
2018-03-04T05:01:09.298Z,3.4
2018-03-04T05:01:58.156Z,3.4
2018-03-04T05:02:49.084Z,3.4
2018-03-04T05:03:37.383Z,3.4
2018-03-04T05:04:29.271Z,3.4
2018-03-04T05:05:19.168Z,3.4
2018-03-04T05:06:08.933Z,3.4
2018-03-04T05:06:59.383Z,3.4
2018-03-04T05:07:49.716Z,3.4
2018-03-04T05:08:40.059Z,3.4
2018-03-04T05:09:29.738Z,3.4
2018-03-04T05:10:20.088Z,3.4
2018-03-04T05:11:10.132Z,3.4
2018-03-04T05:12:00.215Z,3.4
2018-03-04T05:12:50.255Z,3.4
2018-03-04T05:13:39.640Z,3.5
2018-03-04T05:14:29.618Z,3.5
2018-03-04T05:15:19.597Z,3.4
2018-03-04T05:16:09.739Z,3.5
2018-03-04T05:16:59.983Z,3.5
2018-03-04T05:17:50.297Z,3.5
2018-03-04T05:18:40.110Z,3.5
2018-03-04T05:19:30.524Z,3.5
2018-03-04T05:20:20.779Z,3.6
2018-03-04T05:21:10.270Z,3.6
2018-03-04T05:22:00.614Z,3.6
2018-03-04T05:22:49.613Z,3.6
2018-03-04T05:23:39.965Z,3.6
2018-03-04T05:24:30.217Z,3.6
2018-03-04T05:25:20.931Z,3.6
2018-03-04T05:26:10.623Z,3.6
2018-03-04T05:27:00.977Z,3.6
2018-03-04T05:27:50.639Z,3.6
2018-03-04T05:28:40.681Z,3.6
2018-03-04T05:29:31.137Z,3.6
2018-03-04T05:30:20.926Z,3.6
2018-03-04T05:31:11.399Z,3.6
2018-03-04T05:32:01.044Z,3.6
2018-03-04T05:32:51.559Z,3.6
2018-03-04T05:33:40.929Z,3.6
2018-03-04T05:34:31.703Z,3.6
2018-03-04T05:35:21.845Z,3.6
2018-03-04T05:36:11.600Z,3.6
2018-03-04T05:37:01.383Z,3.6
2018-03-04T05:37:51.238Z,3.6
2018-03-04T05:38:42.337Z,3.7
2018-03-04T05:39:30.838Z,3.7
2018-03-04T05:40:22.202Z,3.7
2018-03-04T05:41:11.173Z,3.7
2018-03-04T05:42:01.824Z,3.7
2018-03-04T05:42:51.850Z,3.7
2018-03-04T05:43:42.409Z,3.7
2018-03-04T05:44:31.925Z,3.8
2018-03-04T05:45:22.051Z,3.8
2018-03-04T05:46:11.918Z,3.8
2018-03-04T05:47:01.960Z,3.8
2018-03-04T05:47:52.513Z,3.8
2018-03-04T05:48:42.481Z,3.8
2018-03-04T05:49:32.524Z,3.8
2018-03-04T05:50:21.323Z,3.8
2018-03-04T05:51:12.665Z,3.8
2018-03-04T05:52:02.237Z,3.8
2018-03-04T05:52:51.975Z,3.8
2018-03-04T05:53:42.258Z,3.8
2018-03-04T05:54:32.693Z,3.9
2018-03-04T05:55:22.735Z,3.9
2018-03-04T05:56:12.430Z,3.9
2018-03-04T05:57:02.195Z,3.9
2018-03-04T05:57:52.531Z,3.9
2018-03-04T05:58:42.865Z,3.9
2018-03-04T05:59:33.338Z,3.9
2018-03-04T06:00:23.020Z,3.9
2018-03-04T06:01:13.383Z,3.9
2018-03-04T06:02:03.803Z,3.9
2018-03-04T06:02:52.694Z,3.9
2018-03-04T06:03:42.860Z,4
2018-03-04T06:04:33.409Z,4
2018-03-04T06:05:23.345Z,4
2018-03-04T06:06:12.940Z,4
2018-03-04T06:07:03.271Z,4.1
2018-03-04T06:07:53.731Z,4.1
2018-03-04T06:08:43.588Z,4.1
2018-03-04T06:09:33.827Z,4.1
2018-03-04T06:10:23.237Z,4.1
2018-03-04T06:11:13.579Z,4.1
2018-03-04T06:12:04.117Z,4.2
2018-03-04T06:12:54.445Z,4.3
2018-03-04T06:13:44.509Z,4.3
2018-03-04T06:14:34.868Z,4.3
2018-03-04T06:15:24.339Z,4.3
2018-03-04T06:16:14.387Z,4.3
2018-03-04T06:17:04.562Z,4.4
2018-03-04T06:17:54.810Z,4.4
2018-03-04T06:18:44.874Z,4.4
2018-03-04T06:19:34.912Z,4.5
2018-03-04T06:20:25.274Z,4.6
2018-03-04T06:21:15.304Z,4.6
2018-03-04T06:22:04.800Z,4.6
2018-03-04T06:22:55.132Z,4.6
2018-03-04T06:23:44.344Z,4.8
2018-03-04T06:24:35.588Z,4.8
2018-03-04T06:25:25.356Z,4.8
2018-03-04T06:26:15.701Z,4.9
2018-03-04T06:27:05.741Z,4.9
2018-03-04T06:27:55.236Z,5
2018-03-04T06:28:45.274Z,5
2018-03-04T06:29:35.286Z,5.1
2018-03-04T06:30:25.386Z,5.1
2018-03-04T06:31:16.004Z,5.2
2018-03-04T06:32:05.056Z,5.3
2018-03-04T06:32:55.094Z,5.3
2018-03-04T06:33:45.748Z,5.4
2018-03-04T06:34:34.919Z,5.4
2018-03-04T06:35:25.046Z,5.5
2018-03-04T06:36:15.518Z,5.6
2018-03-04T06:37:05.861Z,5.6
2018-03-04T06:37:55.345Z,5.7
2018-03-04T06:38:45.709Z,5.8
2018-03-04T06:39:36.408Z,5.8
2018-03-04T06:40:25.913Z,5.9
2018-03-04T06:41:15.603Z,5.9
2018-03-04T06:42:06.296Z,6
2018-03-04T06:42:56.086Z,6.1
2018-03-04T06:43:45.757Z,6.1
2018-03-04T06:44:36.165Z,6.1
2018-03-04T06:45:26.061Z,6.2
2018-03-04T06:46:16.807Z,6.3
2018-03-04T06:47:06.561Z,6.3
2018-03-04T06:47:55.931Z,6.3
2018-03-04T06:48:46.394Z,6.3
2018-03-04T06:49:36.255Z,6.4
2018-03-04T06:50:26.885Z,6.4
2018-03-04T06:51:16.184Z,6.4
2018-03-04T06:52:06.631Z,6.5
2018-03-04T06:52:56.672Z,6.5
2018-03-04T06:53:47.133Z,6.6
2018-03-04T06:54:36.791Z,6.6
2018-03-04T06:55:26.665Z,6.6
2018-03-04T06:56:16.448Z,6.7
2018-03-04T06:57:07.001Z,6.7
2018-03-04T06:57:56.905Z,6.8
2018-03-04T06:58:47.245Z,6.8
2018-03-04T06:59:37.255Z,6.9
2018-03-04T07:00:27.633Z,6.9
2018-03-04T07:01:17.282Z,6.9
2018-03-04T07:02:07.333Z,7
2018-03-04T07:02:57.374Z,7.1
2018-03-04T07:03:47.721Z,7.2
2018-03-04T07:04:37.189Z,7.3
2018-03-04T07:05:27.812Z,7.4
2018-03-04T07:06:17.726Z,7.5
2018-03-04T07:07:07.267Z,7.6
2018-03-04T07:07:57.143Z,7.8
2018-03-04T07:08:47.971Z,7.8
2018-03-04T07:09:38.456Z,7.9
2018-03-04T07:10:28.601Z,8.1
2018-03-04T07:11:17.757Z,8.2
2018-03-04T07:12:07.817Z,8.3
2018-03-04T07:12:58.586Z,8.4
2018-03-04T07:13:47.641Z,8.6
2018-03-04T07:14:37.690Z,8.7
2018-03-04T07:15:28.558Z,8.8
2018-03-04T07:16:19.001Z,9
2018-03-04T07:17:08.255Z,9.1
2018-03-04T07:17:58.637Z,9.3
2018-03-04T07:18:48.176Z,9.4
2018-03-04T07:19:38.824Z,9.6
2018-03-04T07:20:28.113Z,9.8
2018-03-04T07:21:18.470Z,9.9
2018-03-04T07:22:09.093Z,10
2018-03-04T07:22:59.353Z,10.1
2018-03-04T07:23:49.118Z,10.3
2018-03-04T07:24:38.993Z,10.4
2018-03-04T07:25:29.356Z,10.5
2018-03-04T07:26:19.225Z,10.6
2018-03-04T07:27:08.898Z,10.8
2018-03-04T07:27:59.497Z,10.9
2018-03-04T07:28:48.717Z,11.1
2018-03-04T07:29:39.372Z,11.3
2018-03-04T07:30:29.999Z,11.4
2018-03-04T07:31:18.996Z,11.7
2018-03-04T07:32:09.587Z,11.9
2018-03-04T07:32:59.370Z,12.1
2018-03-04T07:33:49.122Z,12.3
2018-03-04T07:34:39.670Z,12.5
2018-03-04T07:35:29.973Z,12.7
2018-03-04T07:36:19.593Z,12.9
2018-03-04T07:37:09.772Z,13.1
2018-03-04T07:37:59.511Z,13.4
2018-03-04T07:38:50.446Z,13.6
2018-03-04T07:39:40.222Z,13.8
2018-03-04T07:40:30.094Z,14.1
2018-03-04T07:41:19.665Z,14.3
2018-03-04T07:42:10.133Z,14.5
2018-03-04T07:42:59.960Z,14.6
2018-03-04T07:43:50.140Z,14.9
2018-03-04T07:44:40.390Z,15.1
2018-03-04T07:45:29.857Z,15.4
2018-03-04T07:46:21.046Z,15.7
2018-03-04T07:47:10.575Z,15.9
2018-03-04T07:48:00.257Z,16.2
2018-03-04T07:48:50.964Z,16.4
2018-03-04T07:49:40.738Z,16.7
2018-03-04T07:50:31.302Z,16.9
2018-03-04T07:51:20.339Z,17.3
2018-03-04T07:52:10.531Z,17.6
2018-03-04T07:53:00.286Z,18
2018-03-04T07:53:51.304Z,18.4
2018-03-04T07:54:41.555Z,18.9
2018-03-04T07:55:31.077Z,19.4
2018-03-04T07:56:21.684Z,19.9
2018-03-04T07:57:11.008Z,20.4
2018-03-04T07:58:01.629Z,20.8
2018-03-04T07:58:51.093Z,21.2
2018-03-04T07:59:41.534Z,21.6
2018-03-04T08:00:31.518Z,21.9
2018-03-04T08:01:21.028Z,22.2
2018-03-04T08:02:11.640Z,22.4
2018-03-04T08:03:01.411Z,22.7
2018-03-04T08:03:52.113Z,22.9
2018-03-04T08:04:41.714Z,23.1
2018-03-04T08:05:31.493Z,23.4
2018-03-04T08:06:22.198Z,23.6
2018-03-04T08:07:11.677Z,23.8
2018-03-04T08:08:01.448Z,23.8
2018-03-04T08:08:51.990Z,24
2018-03-04T08:09:41.476Z,24.1
2018-03-04T08:10:31.908Z,24.3
2018-03-04T08:11:22.497Z,24.3
2018-03-04T08:12:12.420Z,24.4
2018-03-04T08:13:02.643Z,24.4
2018-03-04T08:13:52.631Z,24.4
2018-03-04T08:14:42.817Z,24.4
2018-03-04T08:15:32.560Z,24.4
2018-03-04T08:16:22.120Z,24.4
2018-03-04T08:17:12.688Z,24.3
2018-03-04T08:18:02.451Z,24.3
2018-03-04T08:18:52.805Z,24.2
2018-03-04T08:19:42.489Z,24.1
2018-03-04T08:20:32.222Z,24.1
2018-03-04T08:21:23.248Z,23.9
2018-03-04T08:22:12.727Z,23.9
2018-03-04T08:23:02.804Z,23.9
2018-03-04T08:23:53.165Z,23.8
2018-03-04T08:24:43.685Z,23.8
2018-03-04T08:25:33.051Z,23.6
2018-03-04T08:26:23.784Z,23.6
2018-03-04T08:27:14.174Z,23.6
2018-03-04T08:28:03.434Z,23.6
2018-03-04T08:28:53.368Z,23.6
2018-03-04T08:29:42.849Z,23.5
2018-03-04T08:30:34.102Z,23.5
2018-03-04T08:31:23.591Z,23.5
2018-03-04T08:32:13.511Z,23.5
2018-03-04T08:33:03.290Z,23.5
2018-03-04T08:33:54.035Z,23.4
2018-03-04T08:34:43.944Z,23.4
2018-03-04T08:35:34.246Z,23.3
2018-03-04T08:36:23.722Z,23.2
2018-03-04T08:37:14.141Z,23.1
2018-03-04T08:38:04.379Z,23
2018-03-04T08:38:54.439Z,22.9
2018-03-04T08:39:44.351Z,22.8
2018-03-04T08:40:34.491Z,22.7
2018-03-04T08:41:23.986Z,22.6
2018-03-04T08:42:14.496Z,22.4
2018-03-04T08:43:03.687Z,22.3
2018-03-04T08:43:53.833Z,22.2
2018-03-04T08:44:44.391Z,22.1
2018-03-04T08:45:35.482Z,22.1
2018-03-04T08:46:24.618Z,22
2018-03-04T08:47:14.679Z,21.8
2018-03-04T08:48:04.778Z,21.7
2018-03-04T08:48:54.498Z,21.5
2018-03-04T08:49:44.863Z,21.4
2018-03-04T08:50:34.890Z,21.3
2018-03-04T08:51:24.775Z,21.3
2018-03-04T08:52:13.953Z,21.1
2018-03-04T08:53:04.471Z,20.9
2018-03-04T08:53:55.723Z,20.8
2018-03-04T08:54:45.297Z,20.8
2018-03-04T08:55:35.551Z,20.8
2018-03-04T08:56:25.606Z,20.9
2018-03-04T08:57:15.948Z,21.3
2018-03-04T08:58:05.823Z,21.8
2018-03-04T08:58:55.580Z,22.2
2018-03-04T08:59:45.160Z,22.8
2018-03-04T09:00:35.322Z,23.6
2018-03-04T09:01:25.364Z,24.2
2018-03-04T09:02:15.868Z,24.8
2018-03-04T09:03:05.887Z,25.4
2018-03-04T09:03:56.506Z,26.1
2018-03-04T09:04:46.525Z,26.8
2018-03-04T09:05:36.545Z,27.4
2018-03-04T09:06:25.526Z,28
2018-03-04T09:07:15.677Z,28.6
2018-03-04T09:08:06.144Z,29.1
2018-03-04T09:08:56.764Z,29.4
2018-03-04T09:09:46.432Z,29.9
2018-03-04T09:10:36.317Z,30.4
2018-03-04T09:11:26.655Z,30.9
2018-03-04T09:12:16.832Z,31.6
2018-03-04T09:13:06.899Z,32.2
2018-03-04T09:13:56.907Z,32.8
2018-03-04T09:14:47.253Z,33.3
2018-03-04T09:15:36.781Z,33.7
2018-03-04T09:16:27.315Z,34.1
2018-03-04T09:17:17.087Z,34.3
2018-03-04T09:18:07.180Z,34.4
2018-03-04T09:18:57.093Z,34.6
2018-03-04T09:19:47.155Z,34.9
2018-03-04T09:20:36.742Z,35.1
2018-03-04T09:21:28.017Z,35.3
2018-03-04T09:22:17.419Z,35.4
2018-03-04T09:23:07.493Z,35.5
2018-03-04T09:23:57.049Z,35.6
2018-03-04T09:24:47.413Z,35.7
2018-03-04T09:25:37.125Z,35.9
2018-03-04T09:26:27.664Z,35.9
2018-03-04T09:27:17.471Z,35.8
2018-03-04T09:28:07.643Z,35.8
2018-03-04T09:28:57.345Z,35.7
2018-03-04T09:29:47.689Z,35.6
2018-03-04T09:30:38.141Z,35.5
2018-03-04T09:31:28.380Z,35.4
2018-03-04T09:32:17.814Z,35.2
2018-03-04T09:33:07.935Z,34.9
2018-03-04T09:33:57.865Z,34.8
2018-03-04T09:34:47.603Z,34.7
2018-03-04T09:35:38.082Z,34.5
2018-03-04T09:36:28.983Z,34.5
2018-03-04T09:37:18.539Z,34.4
2018-03-04T09:38:08.874Z,34.3
2018-03-04T09:38:58.086Z,34.3
2018-03-04T09:39:48.360Z,34.1
2018-03-04T09:40:38.744Z,34.1
2018-03-04T09:41:29.086Z,34.1
2018-03-04T09:42:18.732Z,34.1
2018-03-04T09:43:08.598Z,33.9
2018-03-04T09:43:58.473Z,33.9
2018-03-04T09:44:48.730Z,33.8
2018-03-04T09:45:39.621Z,33.8
2018-03-04T09:46:28.935Z,33.8
2018-03-04T09:47:18.607Z,33.8
2018-03-04T09:48:08.700Z,33.7
2018-03-04T09:48:58.814Z,33.6
2018-03-04T09:49:49.170Z,33.6
2018-03-04T09:50:39.699Z,33.5
2018-03-04T09:51:29.467Z,33.5
2018-03-04T09:52:19.534Z,33.7
2018-03-04T09:53:09.007Z,33.9
2018-03-04T09:53:59.172Z,33.9
2018-03-04T09:54:49.314Z,34
2018-03-04T09:55:39.572Z,34.1
2018-03-04T09:56:29.834Z,34.3
2018-03-04T09:57:19.693Z,34.5
2018-03-04T09:58:09.637Z,34.6
2018-03-04T09:58:59.292Z,34.8
2018-03-04T09:59:50.354Z,35
2018-03-04T10:00:39.339Z,35.1
2018-03-04T10:01:30.199Z,35.3
2018-03-04T10:02:19.857Z,35.5
2018-03-04T10:03:09.026Z,35.8
2018-03-04T10:04:00.362Z,36.1
2018-03-04T10:04:50.482Z,36.6
2018-03-04T10:05:40.499Z,37.1
2018-03-04T10:06:30.047Z,37.6
2018-03-04T10:07:20.634Z,38.2
2018-03-04T10:08:10.652Z,38.7
2018-03-04T10:08:59.916Z,39.2
2018-03-04T10:09:50.558Z,39.6
2018-03-04T10:10:41.111Z,40
2018-03-04T10:11:30.598Z,40.1
2018-03-04T10:12:20.468Z,40.2
2018-03-04T10:13:10.600Z,40.3
2018-03-04T10:14:00.549Z,40.3
2018-03-04T10:14:50.744Z,40.3
2018-03-04T10:15:40.206Z,40.3
2018-03-04T10:16:31.248Z,40.3
2018-03-04T10:17:20.823Z,40.3
2018-03-04T10:18:11.140Z,40.1
2018-03-04T10:19:01.811Z,40
2018-03-04T10:19:51.070Z,39.9
2018-03-04T10:20:41.055Z,39.8
2018-03-04T10:21:31.580Z,39.6
2018-03-04T10:22:20.886Z,39.2
2018-03-04T10:23:11.235Z,38.9
2018-03-04T10:24:01.451Z,38.7
2018-03-04T10:24:51.415Z,38.5
2018-03-04T10:25:40.997Z,38.3
2018-03-04T10:26:32.228Z,38.1
2018-03-04T10:27:22.278Z,37.9
2018-03-04T10:28:11.749Z,37.9
2018-03-04T10:29:02.148Z,37.9
2018-03-04T10:29:51.579Z,37.8
2018-03-04T10:30:42.237Z,37.7
2018-03-04T10:31:32.140Z,37.6
2018-03-04T10:32:21.890Z,37.6
2018-03-04T10:33:11.914Z,37.6
2018-03-04T10:34:02.774Z,37.5
2018-03-04T10:34:52.805Z,37.4
2018-03-04T10:35:43.127Z,37.5
2018-03-04T10:36:32.617Z,37.4
2018-03-04T10:37:23.283Z,37.4
2018-03-04T10:38:13.030Z,37.4
2018-03-04T10:39:03.112Z,37.3
2018-03-04T10:39:53.406Z,37.2
2018-03-04T10:40:43.158Z,37.1
2018-03-04T10:41:33.536Z,37
2018-03-04T10:42:23.580Z,36.9
2018-03-04T10:43:13.655Z,36.9
2018-03-04T10:44:03.769Z,36.8
2018-03-04T10:44:53.507Z,36.6
2018-03-04T10:45:43.814Z,36.6
2018-03-04T10:46:33.899Z,36.5
2018-03-04T10:47:23.967Z,36.3
2018-03-04T10:48:14.018Z,36.2
2018-03-04T10:49:03.029Z,36.1
2018-03-04T10:49:53.016Z,35.9
2018-03-04T10:50:43.706Z,35.8
2018-03-04T10:51:33.386Z,35.6
2018-03-04T10:52:23.742Z,35.5
2018-03-04T10:53:13.629Z,35.3
2018-03-04T10:54:03.085Z,35.3
2018-03-04T10:54:54.043Z,35.1
2018-03-04T10:55:43.721Z,34.8
2018-03-04T10:56:32.863Z,34.7
2018-03-04T10:57:23.832Z,34.5
2018-03-04T10:58:14.137Z,34.4
2018-03-04T10:59:04.268Z,34.2
2018-03-04T10:59:54.360Z,34
2018-03-04T11:00:44.432Z,33.9
2018-03-04T11:01:34.400Z,33.7
2018-03-04T11:02:24.444Z,33.5
2018-03-04T11:03:14.244Z,33.3
2018-03-04T11:04:04.282Z,33
2018-03-04T11:04:53.765Z,32.8
2018-03-04T11:05:44.322Z,32.6
2018-03-04T11:06:34.821Z,32.3
2018-03-04T11:07:24.125Z,32.1
2018-03-04T11:08:14.966Z,31.9
2018-03-04T11:09:04.046Z,31.8
2018-03-04T11:09:54.742Z,31.5
2018-03-04T11:10:44.755Z,31.2
2018-03-04T11:11:34.569Z,30.9
2018-03-04T11:12:25.218Z,30.7
2018-03-04T11:13:15.242Z,30.4
2018-03-04T11:14:04.796Z,30.3
2018-03-04T11:14:55.441Z,30.1
2018-03-04T11:15:45.998Z,29.9
2018-03-04T11:16:35.045Z,29.7
2018-03-04T11:17:25.192Z,29.5
2018-03-04T11:18:15.554Z,29.4
2018-03-04T11:19:05.067Z,29.3
2018-03-04T11:19:55.178Z,29.1
2018-03-04T11:20:45.062Z,28.9
2018-03-04T11:21:35.581Z,28.7
2018-03-04T11:22:25.647Z,28.5
2018-03-04T11:23:15.926Z,28.3